createdAt,value
2018-09-06T00:01:03.840Z,15.50
2018-09-06T00:03:31.984Z,15.40
2018-09-06T00:06:00.048Z,15.40
2018-09-06T00:08:28.137Z,15.40
2018-09-06T00:10:56.229Z,15.40
2018-09-06T00:13:24.327Z,15.30
2018-09-06T00:15:52.428Z,15.30
2018-09-06T00:18:20.520Z,15.20
2018-09-06T00:20:48.619Z,15.10
2018-09-06T00:23:16.699Z,15.10
2018-09-06T00:25:44.824Z,15.00
2018-09-06T00:28:12.916Z,15.00
2018-09-06T00:30:41.034Z,15.10
2018-09-06T00:33:09.153Z,15.00
2018-09-06T00:35:37.260Z,14.90
2018-09-06T00:38:05.456Z,14.80
2018-09-06T00:40:33.567Z,14.80
2018-09-06T00:43:01.697Z,14.80
2018-09-06T00:45:29.809Z,14.80
2018-09-06T00:47:57.922Z,14.80
2018-09-06T00:50:26.032Z,14.70
2018-09-06T00:52:54.172Z,14.60
2018-09-06T00:55:22.500Z,14.50
2018-09-06T00:57:50.612Z,14.50
2018-09-06T01:00:18.722Z,14.50
2018-09-06T01:02:46.821Z,14.40
2018-09-06T01:05:14.914Z,14.40
2018-09-06T01:07:43.029Z,14.40
2018-09-06T01:10:11.131Z,14.50
2018-09-06T01:12:39.255Z,14.40
2018-09-06T01:15:07.373Z,14.50
2018-09-06T01:17:35.474Z,14.50
2018-09-06T01:20:03.584Z,14.30
2018-09-06T01:22:31.706Z,14.00
2018-09-06T01:24:59.797Z,14.00
2018-09-06T01:27:27.909Z,14.10
2018-09-06T01:29:56.135Z,14.10
2018-09-06T01:32:24.251Z,14.10
2018-09-06T01:34:52.362Z,14.00
2018-09-06T01:37:20.494Z,13.90
2018-09-06T01:39:48.591Z,14.10
2018-09-06T01:42:16.704Z,14.10
2018-09-06T01:44:44.799Z,14.10
2018-09-06T01:47:12.915Z,14.10
2018-09-06T01:49:41.037Z,14.10
2018-09-06T01:52:09.156Z,14.20
2018-09-06T01:54:37.260Z,14.20
2018-09-06T01:57:05.395Z,14.20
2018-09-06T01:59:37.711Z,14.20
2018-09-06T02:02:06.192Z,14.10
2018-09-06T02:04:34.344Z,14.10
2018-09-06T02:07:02.456Z,14.10
2018-09-06T02:09:30.652Z,14.10
2018-09-06T02:11:58.713Z,14.10
2018-09-06T02:14:26.808Z,14.10
2018-09-06T02:16:54.984Z,14.10
2018-09-06T02:19:23.106Z,14.10
2018-09-06T02:21:51.212Z,14.00
2018-09-06T02:24:19.387Z,14.00
2018-09-06T02:26:47.431Z,14.00
2018-09-06T02:29:15.541Z,14.00
2018-09-06T02:31:43.782Z,14.00
2018-09-06T02:34:11.878Z,14.00
2018-09-06T02:36:39.989Z,13.90
2018-09-06T02:39:09.436Z,13.90
2018-09-06T02:41:37.563Z,13.90
2018-09-06T02:44:05.837Z,13.80
2018-09-06T02:46:33.950Z,13.70
2018-09-06T02:49:02.063Z,13.80
2018-09-06T02:51:30.146Z,13.80
2018-09-06T02:53:58.268Z,13.80
2018-09-06T02:56:26.356Z,13.80
2018-09-06T02:58:54.451Z,13.70
2018-09-06T03:01:22.558Z,13.70
2018-09-06T03:03:50.662Z,13.60
2018-09-06T03:06:18.791Z,13.60
2018-09-06T03:08:46.988Z,13.70
2018-09-06T03:11:17.239Z,13.70
2018-09-06T03:13:45.363Z,13.60
2018-09-06T03:16:13.468Z,13.60
2018-09-06T03:18:41.584Z,13.60
2018-09-06T03:21:09.741Z,13.60
2018-09-06T03:23:37.807Z,13.60
2018-09-06T03:26:11.571Z,13.60
2018-09-06T03:31:33.127Z,13.40
2018-09-06T03:34:01.252Z,13.40
2018-09-06T03:36:29.355Z,13.40
2018-09-06T03:38:57.455Z,13.40
2018-09-06T03:41:25.553Z,13.40
2018-09-06T03:43:53.655Z,13.40
2018-09-06T03:46:21.760Z,13.40
2018-09-06T03:48:49.888Z,13.40
2018-09-06T03:51:18.000Z,13.40
2018-09-06T03:53:46.103Z,13.40
2018-09-06T03:56:14.203Z,13.40
2018-09-06T03:58:42.315Z,13.40
2018-09-06T04:01:10.424Z,13.40
2018-09-06T04:03:38.530Z,13.30
2018-09-06T04:06:06.638Z,13.20
2018-09-06T04:08:34.756Z,13.20
2018-09-06T04:11:02.853Z,13.20
2018-09-06T04:13:30.972Z,13.20
2018-09-06T04:15:59.092Z,13.20
2018-09-06T04:18:27.280Z,13.20
2018-09-06T04:20:55.336Z,13.20
2018-09-06T04:23:23.444Z,13.20
2018-09-06T04:25:51.537Z,13.10
2018-09-06T04:28:19.648Z,13.10
2018-09-06T04:30:47.768Z,13.10
2018-09-06T04:33:15.974Z,13.10
2018-09-06T04:35:44.079Z,13.00
2018-09-06T04:38:12.200Z,12.90
2018-09-06T04:40:40.322Z,12.90
2018-09-06T04:43:08.412Z,12.90
2018-09-06T04:45:36.520Z,13.00
2018-09-06T04:48:04.644Z,13.00
2018-09-06T04:50:32.748Z,13.00
2018-09-06T04:53:00.848Z,13.00
2018-09-06T04:55:29.001Z,12.90
2018-09-06T04:57:57.122Z,12.90
2018-09-06T05:00:25.239Z,12.90
2018-09-06T05:02:53.348Z,12.80
2018-09-06T05:05:21.527Z,12.80
2018-09-06T05:07:49.641Z,12.90
2018-09-06T05:10:17.751Z,12.90
2018-09-06T05:12:45.876Z,12.90
2018-09-06T05:15:13.995Z,12.90
2018-09-06T05:17:42.108Z,12.90
2018-09-06T05:20:10.220Z,12.90
2018-09-06T05:22:38.344Z,12.90
2018-09-06T05:25:06.478Z,13.00
2018-09-06T05:27:34.586Z,12.80
2018-09-06T05:30:02.724Z,12.80
2018-09-06T05:32:30.916Z,12.90
2018-09-06T05:34:59.071Z,12.90
2018-09-06T05:37:27.133Z,13.00
2018-09-06T05:39:55.244Z,13.10
2018-09-06T05:42:23.348Z,13.20
2018-09-06T05:44:51.457Z,13.20
2018-09-06T05:47:19.615Z,13.20
2018-09-06T05:49:47.706Z,13.20
2018-09-06T05:52:15.811Z,13.20
2018-09-06T05:54:44.043Z,13.30
2018-09-06T05:57:12.155Z,13.30
2018-09-06T05:59:40.337Z,13.40
2018-09-06T06:02:08.560Z,13.60
2018-09-06T06:04:36.859Z,13.70
2018-09-06T06:07:05.011Z,13.80
2018-09-06T06:09:33.411Z,13.90
2018-09-06T06:12:01.536Z,14.00
2018-09-06T06:14:29.650Z,14.10
2018-09-06T06:16:57.810Z,14.20
2018-09-06T06:19:25.898Z,14.40
2018-09-06T06:21:54.019Z,14.40
2018-09-06T06:24:22.116Z,14.60
2018-09-06T06:26:50.228Z,14.80
2018-09-06T06:29:18.346Z,15.00
2018-09-06T06:31:46.492Z,15.10
2018-09-06T06:34:14.572Z,15.40
2018-09-06T06:36:42.679Z,15.50
2018-09-06T06:39:12.530Z,15.60
2018-09-06T06:41:40.787Z,15.80
2018-09-06T06:44:08.971Z,16.10
2018-09-06T06:46:37.085Z,16.30
2018-09-06T06:49:05.367Z,16.50
2018-09-06T06:51:33.471Z,16.50
2018-09-06T06:54:01.574Z,16.60
2018-09-06T06:56:30.597Z,16.80
2018-09-06T06:58:58.712Z,16.90
2018-09-06T07:01:26.834Z,17.10
2018-09-06T07:03:54.956Z,17.30
2018-09-06T07:06:23.096Z,17.50
2018-09-06T07:08:51.207Z,17.50
2018-09-06T07:11:19.329Z,17.70
2018-09-06T07:13:47.422Z,18.00
2018-09-06T07:16:15.564Z,18.10
2018-09-06T07:18:43.695Z,18.20
2018-09-06T07:21:11.782Z,18.50
2018-09-06T07:23:39.904Z,18.70
2018-09-06T07:26:08.012Z,18.80
2018-09-06T07:28:36.136Z,18.90
2018-09-06T07:31:04.260Z,19.10
2018-09-06T07:33:32.374Z,19.40
2018-09-06T07:36:00.483Z,19.60
2018-09-06T07:38:28.580Z,19.60
2018-09-06T07:40:56.760Z,19.80
2018-09-06T07:43:24.872Z,19.90
2018-09-06T07:45:53.004Z,20.10
2018-09-06T07:48:21.122Z,20.40
2018-09-06T07:50:49.240Z,20.50
2018-09-06T07:53:17.356Z,20.70
2018-09-06T07:55:45.506Z,21.00
2018-09-06T07:58:13.635Z,21.10
2018-09-06T08:00:41.736Z,21.20
2018-09-06T08:03:10.484Z,21.30
2018-09-06T08:05:39.669Z,21.30
2018-09-06T08:08:07.780Z,21.60
2018-09-06T08:10:35.871Z,21.70
2018-09-06T08:13:04.036Z,21.80
2018-09-06T08:15:32.124Z,22.00
2018-09-06T08:18:00.219Z,22.20
2018-09-06T08:20:28.618Z,22.30
2018-09-06T08:22:56.769Z,22.40
2018-09-06T08:25:24.881Z,22.50
2018-09-06T08:27:53.149Z,22.70
2018-09-06T08:30:21.254Z,22.90
2018-09-06T08:32:49.464Z,23.10
2018-09-06T08:35:17.582Z,23.30
2018-09-06T08:37:45.688Z,23.30
2018-09-06T08:40:13.782Z,23.50
2018-09-06T08:42:41.905Z,23.60
2018-09-06T08:45:09.996Z,23.70
2018-09-06T08:47:38.200Z,23.80
2018-09-06T08:50:06.364Z,23.90
2018-09-06T08:52:34.524Z,24.10
2018-09-06T08:55:02.564Z,24.20
2018-09-06T08:57:30.687Z,24.20
2018-09-06T08:59:58.790Z,24.40
2018-09-06T09:02:27.018Z,24.50
2018-09-06T09:04:55.022Z,24.70
2018-09-06T09:07:23.135Z,24.80
2018-09-06T09:09:51.223Z,24.90
2018-09-06T09:12:19.361Z,24.90
2018-09-06T09:14:47.440Z,25.00
2018-09-06T09:17:15.545Z,25.20
2018-09-06T09:19:43.664Z,25.30
2018-09-06T09:22:11.869Z,25.50
2018-09-06T09:24:39.871Z,25.70
2018-09-06T09:27:07.999Z,25.80
2018-09-06T09:29:36.108Z,25.90
2018-09-06T09:32:04.210Z,26.10
2018-09-06T09:34:32.320Z,26.20
2018-09-06T09:37:00.430Z,26.40
2018-09-06T09:39:28.547Z,26.60
2018-09-06T09:41:56.639Z,26.80
2018-09-06T09:44:24.948Z,26.90
2018-09-06T09:49:20.379Z,26.90
2018-09-06T09:51:48.482Z,26.80
2018-09-06T09:54:16.664Z,26.80
2018-09-06T09:56:44.754Z,26.80
2018-09-06T09:59:12.883Z,26.70
2018-09-06T10:01:44.163Z,26.70
2018-09-06T10:04:17.819Z,26.60
2018-09-06T10:06:51.358Z,26.50
2018-09-06T10:09:21.447Z,26.50
2018-09-06T10:11:49.559Z,26.80
2018-09-06T10:14:17.659Z,26.90
2018-09-06T10:16:46.271Z,27.00
2018-09-06T10:19:14.411Z,27.00
2018-09-06T10:21:42.496Z,27.10
2018-09-06T10:24:10.899Z,27.20
2018-09-06T10:26:39.155Z,27.30
2018-09-06T10:29:07.359Z,27.40
2018-09-06T10:31:35.628Z,27.60
2018-09-06T10:34:03.775Z,27.70
2018-09-06T10:36:32.290Z,27.80
2018-09-06T10:39:00.384Z,27.90
2018-09-06T10:41:28.481Z,27.90
2018-09-06T10:43:56.824Z,27.90
2018-09-06T10:46:24.931Z,27.90
2018-09-06T10:48:53.046Z,28.00
2018-09-06T10:51:21.152Z,28.20
2018-09-06T10:53:49.263Z,28.20
2018-09-06T10:56:17.380Z,28.30
2018-09-06T10:58:45.480Z,28.40
2018-09-06T11:01:23.267Z,28.40
2018-09-06T11:03:53.289Z,28.40
2018-09-06T11:06:21.417Z,28.60
2018-09-06T11:08:49.545Z,28.80
2018-09-06T11:11:17.650Z,28.80
2018-09-06T11:13:45.871Z,28.90
2018-09-06T11:16:14.003Z,29.10
2018-09-06T11:18:42.083Z,29.20
2018-09-06T11:21:10.522Z,29.20
2018-09-06T11:23:38.504Z,29.40
2018-09-06T11:26:06.619Z,29.50
2018-09-06T11:28:34.705Z,29.50
2018-09-06T11:31:02.800Z,29.30
2018-09-06T11:33:30.896Z,29.40
2018-09-06T11:35:58.996Z,29.50
2018-09-06T11:38:27.111Z,29.40
2018-09-06T11:40:55.228Z,29.20
2018-09-06T11:43:23.323Z,29.40
2018-09-06T11:45:51.430Z,29.50
2018-09-06T11:48:19.524Z,29.60
2018-09-06T11:50:47.675Z,29.70
2018-09-06T11:53:15.771Z,29.70
2018-09-06T11:55:43.968Z,29.60
2018-09-06T11:58:12.134Z,29.30
2018-09-06T12:00:42.136Z,29.30
2018-09-06T12:03:10.226Z,29.20
2018-09-06T12:05:38.408Z,29.10
2018-09-06T12:08:06.563Z,28.80
2018-09-06T12:10:34.719Z,28.70
2018-09-06T12:13:02.875Z,28.80
2018-09-06T12:15:30.993Z,28.80
2018-09-06T12:17:59.103Z,28.70
2018-09-06T12:20:27.339Z,28.80
2018-09-06T12:22:55.428Z,28.70
2018-09-06T12:25:23.616Z,28.80
2018-09-06T12:27:51.667Z,29.00
2018-09-06T12:30:20.570Z,29.10
2018-09-06T12:32:48.659Z,29.10
2018-09-06T12:35:16.999Z,29.10
2018-09-06T12:37:45.404Z,29.30
2018-09-06T12:40:13.537Z,29.30
2018-09-06T12:42:42.135Z,29.30
2018-09-06T12:45:10.228Z,29.30
2018-09-06T12:47:39.143Z,29.30
2018-09-06T12:50:07.351Z,29.40
2018-09-06T12:52:35.462Z,29.20
2018-09-06T12:55:03.573Z,29.20
2018-09-06T12:57:31.728Z,29.10
2018-09-06T12:59:59.838Z,28.90
2018-09-06T13:02:27.974Z,28.90
2018-09-06T13:04:56.071Z,28.90
2018-09-06T13:07:24.201Z,28.90
2018-09-06T13:09:52.311Z,28.90
2018-09-06T13:12:20.409Z,28.90
2018-09-06T13:14:48.579Z,28.90
2018-09-06T13:17:16.681Z,29.00
2018-09-06T13:19:44.816Z,29.00
2018-09-06T13:22:12.925Z,29.00
2018-09-06T13:24:41.020Z,29.10
2018-09-06T13:27:09.144Z,29.10
2018-09-06T13:29:37.240Z,29.20
2018-09-06T13:32:05.374Z,29.10
2018-09-06T13:34:33.495Z,29.00
2018-09-06T13:37:01.622Z,28.90
2018-09-06T13:39:29.736Z,28.80
2018-09-06T13:41:57.854Z,28.80
2018-09-06T13:44:25.956Z,28.70
2018-09-06T13:46:54.078Z,28.50
2018-09-06T13:49:22.165Z,28.60
2018-09-06T13:51:50.435Z,28.50
2018-09-06T13:54:18.552Z,28.50
2018-09-06T13:56:46.703Z,28.30
2018-09-06T13:59:14.826Z,28.20
2018-09-06T14:01:42.931Z,28.20
2018-09-06T14:04:11.204Z,28.00
2018-09-06T14:06:39.300Z,27.90
2018-09-06T14:09:07.668Z,27.80
2018-09-06T14:11:36.035Z,27.80
2018-09-06T14:14:04.215Z,27.70
2018-09-06T14:16:32.338Z,27.70
2018-09-06T14:19:00.504Z,27.60
2018-09-06T14:21:28.606Z,27.60
2018-09-06T14:23:56.852Z,27.60
2018-09-06T14:26:24.960Z,27.50
2018-09-06T14:28:53.066Z,27.40
2018-09-06T14:31:21.151Z,27.30
2018-09-06T14:33:49.254Z,27.30
2018-09-06T14:36:17.362Z,27.40
2018-09-06T14:38:45.562Z,27.40
2018-09-06T14:41:13.588Z,27.50
2018-09-06T14:43:41.757Z,27.60
2018-09-06T14:46:09.865Z,27.60
2018-09-06T14:48:38.124Z,27.70
2018-09-06T14:51:06.340Z,27.60
2018-09-06T14:53:34.450Z,27.40
2018-09-06T14:56:02.683Z,27.40
2018-09-06T14:58:30.804Z,27.40
2018-09-06T15:00:58.906Z,27.40
2018-09-06T15:03:27.019Z,27.30
2018-09-06T15:05:55.112Z,27.20
2018-09-06T15:08:23.262Z,27.00
2018-09-06T15:10:51.355Z,26.90
2018-09-06T15:13:19.468Z,26.70
2018-09-06T15:15:47.811Z,26.40
2018-09-06T15:18:15.923Z,26.20
2018-09-06T15:20:44.033Z,26.00
2018-09-06T15:23:12.140Z,26.00
2018-09-06T15:25:40.230Z,26.00
2018-09-06T15:28:08.343Z,26.00
2018-09-06T15:30:36.457Z,25.90
2018-09-06T15:33:04.579Z,25.80
2018-09-06T15:35:32.755Z,25.70
2018-09-06T15:38:00.833Z,25.70
2018-09-06T15:40:28.993Z,25.70
2018-09-06T15:42:57.107Z,25.70
2018-09-06T15:45:25.256Z,25.30
2018-09-06T15:47:53.450Z,25.30
2018-09-06T15:50:21.572Z,25.30
2018-09-06T15:52:49.679Z,25.10
2018-09-06T15:55:17.807Z,24.80
2018-09-06T15:57:45.921Z,24.70
2018-09-06T16:00:14.115Z,24.60
2018-09-06T16:02:42.346Z,24.60
2018-09-06T16:05:17.280Z,24.50
2018-09-06T16:07:45.490Z,24.50
2018-09-06T16:10:13.536Z,24.40
2018-09-06T16:12:41.652Z,24.20
2018-09-06T16:15:09.769Z,24.10
2018-09-06T16:17:37.864Z,24.00
2018-09-06T16:20:05.985Z,23.90
2018-09-06T16:22:34.086Z,23.70
2018-09-06T16:25:02.353Z,23.60
2018-09-06T16:27:30.495Z,23.30
2018-09-06T16:29:58.651Z,23.00
2018-09-06T16:32:26.762Z,22.70
2018-09-06T16:34:54.876Z,22.70
2018-09-06T16:37:23.023Z,22.50
2018-09-06T16:39:51.180Z,22.40
2018-09-06T16:42:19.283Z,22.30
2018-09-06T16:44:47.428Z,22.10
2018-09-06T16:47:15.539Z,22.00
2018-09-06T16:49:43.689Z,21.90
2018-09-06T16:52:11.816Z,21.80
2018-09-06T16:54:39.933Z,21.70
2018-09-06T16:57:08.026Z,21.70
2018-09-06T16:59:36.138Z,21.60
2018-09-06T17:02:04.237Z,21.40
2018-09-06T17:04:32.353Z,21.40
2018-09-06T17:07:00.546Z,21.40
2018-09-06T17:09:28.595Z,21.30
2018-09-06T17:13:00.215Z,21.10
2018-09-06T17:15:28.340Z,21.00
2018-09-06T17:17:56.456Z,21.00
2018-09-06T17:20:24.608Z,20.90
2018-09-06T17:22:52.662Z,20.70
2018-09-06T17:25:20.788Z,20.60
2018-09-06T17:27:48.884Z,20.60
2018-09-06T17:30:17.011Z,20.70
2018-09-06T17:32:45.255Z,20.60
2018-09-06T17:35:13.250Z,20.70
2018-09-06T17:37:41.379Z,20.80
2018-09-06T17:40:09.512Z,20.90
2018-09-06T17:42:37.628Z,20.80
2018-09-06T17:45:05.720Z,20.80
2018-09-06T17:47:33.881Z,20.70
2018-09-06T17:50:01.949Z,20.30
2018-09-06T17:52:30.055Z,20.20
2018-09-06T17:54:58.323Z,20.00
2018-09-06T17:57:28.504Z,19.90
2018-09-06T17:59:56.608Z,20.00
2018-09-06T18:02:25.930Z,20.00
2018-09-06T18:04:56.574Z,20.10
2018-09-06T18:07:26.991Z,20.10
2018-09-06T18:09:55.151Z,20.20
2018-09-06T18:12:23.281Z,20.30
2018-09-06T18:14:51.381Z,20.30
2018-09-06T18:17:19.539Z,20.40
2018-09-06T18:19:47.660Z,20.30
2018-09-06T18:22:15.786Z,20.30
2018-09-06T18:24:43.921Z,20.30
2018-09-06T18:27:12.069Z,20.20
2018-09-06T18:29:40.163Z,20.30
2018-09-06T18:32:08.270Z,20.40
2018-09-06T18:34:36.396Z,20.50
2018-09-06T18:37:04.579Z,20.40
2018-09-06T18:39:32.653Z,20.50
2018-09-06T18:42:00.858Z,20.50
2018-09-06T18:44:28.989Z,20.50
2018-09-06T18:46:57.103Z,20.50
2018-09-06T18:49:25.283Z,20.40
2018-09-06T18:51:53.467Z,20.40
2018-09-06T18:54:21.631Z,20.40
2018-09-06T18:56:49.743Z,20.40
2018-09-06T18:59:17.939Z,20.30
2018-09-06T19:01:46.067Z,20.30
2018-09-06T19:04:14.370Z,20.30
2018-09-06T19:06:42.515Z,20.40
2018-09-06T19:09:11.777Z,20.30
2018-09-06T19:11:39.874Z,20.30
2018-09-06T19:14:08.248Z,20.20
2018-09-06T19:16:36.413Z,20.20
2018-09-06T19:19:04.892Z,20.10
2018-09-06T19:21:32.991Z,20.10
2018-09-06T19:24:01.308Z,20.00
2018-09-06T19:26:29.426Z,20.00
2018-09-06T19:28:57.658Z,19.80
2018-09-06T19:31:25.797Z,19.50
2018-09-06T19:33:53.907Z,19.40
2018-09-06T19:36:22.045Z,19.30
2018-09-06T19:38:50.166Z,19.30
2018-09-06T19:41:18.267Z,19.40
2018-09-06T19:43:46.374Z,19.40
2018-09-06T19:46:14.479Z,19.40
2018-09-06T19:48:42.609Z,19.40
2018-09-06T19:51:10.795Z,19.30
2018-09-06T19:53:38.919Z,19.20
2018-09-06T19:56:07.027Z,19.10
2018-09-06T19:58:35.292Z,19.20
2018-09-06T20:01:03.461Z,19.20
2018-09-06T20:03:31.569Z,19.30
2018-09-06T20:05:59.687Z,19.40
2018-09-06T20:08:27.818Z,19.50
2018-09-06T20:10:56.142Z,19.50
2018-09-06T20:13:24.272Z,19.60
2018-09-06T20:15:52.385Z,19.70
2018-09-06T20:18:20.488Z,19.70
2018-09-06T20:20:48.727Z,19.70
2018-09-06T20:23:16.865Z,19.70
2018-09-06T20:25:45.153Z,19.70
2018-09-06T20:28:13.434Z,19.80
2018-09-06T20:30:41.470Z,19.80
2018-09-06T20:33:09.668Z,19.80
2018-09-06T20:35:37.842Z,19.70
2018-09-06T20:38:05.952Z,19.70
2018-09-06T20:40:34.111Z,19.70
2018-09-06T20:43:02.268Z,19.80
2018-09-06T20:45:30.375Z,19.80
2018-09-06T20:47:58.519Z,19.70
2018-09-06T20:50:26.633Z,19.80
2018-09-06T20:52:54.749Z,19.80
2018-09-06T20:55:22.938Z,19.70
2018-09-06T20:57:51.106Z,19.70
2018-09-06T21:00:19.203Z,19.70
2018-09-06T21:02:47.315Z,19.70
2018-09-06T21:05:15.551Z,19.60
2018-09-06T21:07:43.666Z,19.50
2018-09-06T21:10:11.783Z,19.50
2018-09-06T21:12:39.885Z,19.60
2018-09-06T21:15:07.987Z,19.60
2018-09-06T21:17:36.202Z,19.70
2018-09-06T21:20:04.973Z,19.70
2018-09-06T21:22:33.081Z,19.70
2018-09-06T21:25:01.196Z,19.70
2018-09-06T21:27:29.341Z,19.70
2018-09-06T21:29:57.536Z,19.70
2018-09-06T21:32:25.586Z,19.70
2018-09-06T21:34:53.702Z,19.70
2018-09-06T21:37:21.799Z,19.70
2018-09-06T21:39:49.936Z,19.70
2018-09-06T21:42:18.041Z,19.60
2018-09-06T21:44:46.376Z,19.60
2018-09-06T21:47:14.495Z,19.60
2018-09-06T21:49:42.605Z,19.50
2018-09-06T21:52:10.730Z,19.40
2018-09-06T21:54:38.827Z,19.50
2018-09-06T21:57:06.920Z,19.50
2018-09-06T21:59:35.020Z,19.50
2018-09-06T22:02:03.122Z,19.40
2018-09-06T22:04:31.224Z,19.40
2018-09-06T22:06:59.319Z,19.40
2018-09-06T22:09:27.495Z,19.40
2018-09-06T22:11:55.612Z,19.40
2018-09-06T22:14:23.776Z,19.50
2018-09-06T22:16:51.893Z,19.50
2018-09-06T22:19:19.991Z,19.40
2018-09-06T22:21:48.087Z,19.30
2018-09-06T22:24:16.220Z,19.30
2018-09-06T22:26:44.368Z,19.20
2018-09-06T22:29:12.506Z,19.30
2018-09-06T22:31:40.635Z,19.30
2018-09-06T22:34:08.764Z,19.40
2018-09-06T22:36:36.877Z,19.40
2018-09-06T22:39:07.695Z,19.40
2018-09-06T22:41:35.819Z,19.40
2018-09-06T22:44:03.927Z,19.40
2018-09-06T22:46:32.044Z,19.40
2018-09-06T22:49:00.178Z,19.20
2018-09-06T22:51:28.270Z,19.10
2018-09-06T22:53:56.372Z,19.20
2018-09-06T22:56:24.547Z,19.20
2018-09-06T22:58:52.742Z,19.20
2018-09-06T23:01:20.847Z,19.30
2018-09-06T23:03:51.965Z,19.20
2018-09-06T23:06:20.114Z,19.20
2018-09-06T23:08:48.237Z,19.20
2018-09-06T23:11:16.336Z,19.30
2018-09-06T23:13:44.452Z,19.20
2018-09-06T23:16:12.559Z,19.30
2018-09-06T23:18:40.675Z,19.30
2018-09-06T23:21:08.786Z,19.30
2018-09-06T23:23:36.894Z,19.30
2018-09-06T23:26:05.093Z,19.30
2018-09-06T23:28:33.200Z,19.20
2018-09-06T23:31:01.299Z,19.30
2018-09-06T23:33:29.404Z,19.30
2018-09-06T23:35:57.516Z,19.30
2018-09-06T23:38:25.632Z,19.30
2018-09-06T23:40:54.218Z,19.30
2018-09-06T23:43:23.295Z,19.20
2018-09-06T23:45:53.449Z,19.20
2018-09-06T23:48:23.424Z,19.00
2018-09-06T23:50:51.915Z,18.90
2018-09-06T23:53:20.039Z,18.60
2018-09-06T23:55:48.263Z,18.50
2018-09-06T23:58:16.653Z,18.50
